Time;durP1;ratioP1;P1;durP2;ratioP2;P2;SDS_P1;SDS_P2;PMS_P1;PMS_P2;Temp;Humidity;BMP_temperature;BMP_pressure;BME280_temperature;BME280_humidity;BME280_pressure;Samples;Min_cycle;Max_cycle;Signal;HPM_P1;HPM_P2
2021/10/18 00:01:53;;;;;;;15.80;8.60;;;;;;;;;;5051061;28;20524;-46
2021/10/18 00:04:19;;;;;;;18.10;9.40;;;;;;;;;;5051388;28;20492;-46
2021/10/18 00:06:45;;;;;;;11.47;8.23;;;;;;;;;;5051191;28;20506;-46
2021/10/18 00:09:12;;;;;;;7.17;5.67;;;;;;;;;;5051219;28;20457;-46
2021/10/18 00:11:38;;;;;;;11.00;7.23;;;;;;;;;;5051160;28;20764;-46
2021/10/18 00:14:04;;;;;;;13.03;7.43;;;;;;;;;;5051071;28;20905;-46
2021/10/18 00:16:30;;;;;;;7.30;6.57;;;;;;;;;;5051127;28;20462;-46
2021/10/18 00:18:56;;;;;;;7.63;6.87;;;;;;;;;;5051068;28;20846;-46
2021/10/18 00:21:22;;;;;;;7.80;6.37;;;;;;;;;;5050978;28;20439;-46
2021/10/18 00:23:48;;;;;;;6.70;5.73;;;;;;;;;;5050938;28;20405;-47
2021/10/18 00:26:14;;;;;;;8.07;5.83;;;;;;;;;;5052002;28;20890;-47
2021/10/18 00:28:40;;;;;;;6.50;5.80;;;;;;;;;;5054595;28;20557;-47
2021/10/18 00:31:06;;;;;;;7.00;5.20;;;;;;;;;;5054644;28;20500;-48
2021/10/18 00:33:32;;;;;;;5.93;5.43;;;;;;;;;;5054394;28;20406;-46
2021/10/18 00:35:58;;;;;;;6.23;5.50;;;;;;;;;;5054609;28;20446;-46
2021/10/18 00:38:24;;;;;;;6.20;5.50;;;;;;;;;;5054503;28;20401;-46
2021/10/18 00:40:50;;;;;;;6.50;5.90;;;;;;;;;;5054414;28;20516;-46
2021/10/18 00:43:15;;;;;;;8.23;6.10;;;;;;;;;;5054209;28;20399;-47
2021/10/18 00:45:41;;;;;;;9.20;6.07;;;;;;;;;;5054427;28;20405;-46
2021/10/18 00:48:07;;;;;;;7.40;6.13;;;;;;;;;;5054318;28;20539;-47
2021/10/18 00:50:33;;;;;;;6.90;5.90;;;;;;;;;;5054223;28;20507;-47
2021/10/18 00:53:00;;;;;;;9.20;5.60;;;;;;;;;;5053991;28;20442;-46
2021/10/18 00:55:26;;;;;;;6.73;5.50;;;;;;;;;;5054159;28;20490;-46
2021/10/18 00:57:52;;;;;;;6.90;5.53;;;;;;;;;;5054134;28;20452;-47
2021/10/18 01:00:19;;;;;;;5.83;4.70;;;;;;;;;;5054172;28;20436;-47
2021/10/18 01:02:45;;;;;;;8.53;6.03;;;;;;;;;;5053153;28;20799;-46
2021/10/18 01:05:11;;;;;;;9.10;6.17;;;;;;;;;;5053503;28;20395;-46
2021/10/18 01:07:37;;;;;;;5.90;5.10;;;;;;;;;;5053886;28;20399;-46
2021/10/18 01:10:03;;;;;;;9.13;6.23;;;;;;;;;;5053882;28;20455;-47
2021/10/18 01:12:29;;;;;;;6.80;6.13;;;;;;;;;;5053508;28;20507;-46
2021/10/18 01:14:55;;;;;;;7.93;6.20;;;;;;;;;;5053878;28;20495;-46
2021/10/18 01:17:21;;;;;;;7.50;5.53;;;;;;;;;;5053958;28;20401;-46
2021/10/18 01:19:49;;;;;;;6.43;5.27;;;;;;;;;;5053671;28;20431;-46
2021/10/18 01:22:15;;;;;;;6.70;6.00;;;;;;;;;;5053503;28;20423;-46
2021/10/18 01:24:41;;;;;;;7.77;5.20;;;;;;;;;;5053586;28;20408;-46
2021/10/18 01:27:07;;;;;;;6.50;5.50;;;;;;;;;;5053586;28;20748;-46
2021/10/18 01:29:34;;;;;;;14.00;6.90;;;;;;;;;;5053473;28;20463;-46
2021/10/18 01:32:00;;;;;;;5.50;5.03;;;;;;;;;;5053258;28;20979;-46
2021/10/18 01:34:27;;;;;;;13.13;6.23;;;;;;;;;;5053549;28;20895;-47
2021/10/18 01:36:53;;;;;;;7.53;5.40;;;;;;;;;;5053473;28;20393;-47
2021/10/18 01:39:19;;;;;;;5.93;5.43;;;;;;;;;;5053331;28;20406;-46
2021/10/18 01:41:45;;;;;;;6.40;5.23;;;;;;;;;;5053382;28;20443;-46
2021/10/18 01:44:11;;;;;;;6.57;5.50;;;;;;;;;;5053314;28;20498;-46
2021/10/18 01:46:37;;;;;;;6.37;5.60;;;;;;;;;;5053143;28;20403;-46
2021/10/18 01:49:03;;;;;;;8.33;5.80;;;;;;;;;;5053480;28;20463;-46
2021/10/18 01:51:29;;;;;;;7.67;5.50;;;;;;;;;;5053060;28;20859;-47
2021/10/18 01:53:55;;;;;;;5.77;5.17;;;;;;;;;;5052876;28;20402;-45
2021/10/18 01:56:21;;;;;;;7.17;5.90;;;;;;;;;;5053243;28;20539;-45
2021/10/18 01:58:47;;;;;;;11.40;5.80;;;;;;;;;;5053102;28;20405;-46
2021/10/18 02:01:13;;;;;;;6.73;5.20;;;;;;;;;;5052939;28;20493;-46
2021/10/18 02:03:39;;;;;;;5.90;5.47;;;;;;;;;;5052691;28;20810;-46
2021/10/18 02:06:05;;;;;;;7.00;5.80;;;;;;;;;;5052934;28;20409;-46
2021/10/18 02:08:34;;;;;;;5.97;5.10;;;;;;;;;;5053136;28;20412;-45
2021/10/18 02:11:00;;;;;;;6.70;6.00;;;;;;;;;;5052751;28;20561;-46
2021/10/18 02:13:26;;;;;;;7.03;5.90;;;;;;;;;;5052579;28;20413;-45
2021/10/18 02:15:52;;;;;;;6.27;5.67;;;;;;;;;;5052754;28;20407;-46
2021/10/18 02:18:18;;;;;;;6.80;6.10;;;;;;;;;;5052427;28;20422;-46
2021/10/18 02:20:44;;;;;;;7.40;6.53;;;;;;;;;;5052569;28;20440;-46
2021/10/18 02:23:10;;;;;;;9.20;6.60;;;;;;;;;;5052320;28;20402;-45
2021/10/18 02:25:36;;;;;;;7.60;6.90;;;;;;;;;;5052535;28;20491;-45
2021/10/18 02:28:02;;;;;;;7.53;5.93;;;;;;;;;;5052430;28;20468;-46
2021/10/18 02:30:27;;;;;;;9.60;6.73;;;;;;;;;;5052370;28;20488;-46
2021/10/18 02:32:53;;;;;;;9.80;6.43;;;;;;;;;;5052091;28;20960;-48
2021/10/18 02:35:19;;;;;;;6.17;5.57;;;;;;;;;;5052390;28;20490;-46
2021/10/18 02:37:46;;;;;;;9.73;6.20;;;;;;;;;;5052176;28;20398;-46
2021/10/18 02:40:12;;;;;;;7.80;6.30;;;;;;;;;;5052321;28;20403;-45
2021/10/18 02:42:38;;;;;;;8.03;6.23;;;;;;;;;;5052025;28;20421;-46
2021/10/18 02:45:05;;;;;;;8.07;6.00;;;;;;;;;;5052225;28;20769;-45
2021/10/18 02:47:31;;;;;;;7.70;6.53;;;;;;;;;;5052014;28;20416;-46
2021/10/18 02:49:57;;;;;;;7.30;6.20;;;;;;;;;;5051618;28;20454;-46
2021/10/18 02:52:23;;;;;;;7.43;6.10;;;;;;;;;;5051658;28;20423;-47
2021/10/18 02:54:49;;;;;;;10.60;6.97;;;;;;;;;;5052091;28;20431;-46
2021/10/18 02:57:15;;;;;;;7.50;6.73;;;;;;;;;;5051979;28;20410;-46
2021/10/18 02:59:41;;;;;;;7.60;6.27;;;;;;;;;;5051964;28;20407;-46
2021/10/18 03:02:07;;;;;;;7.10;6.40;;;;;;;;;;5051615;28;20431;-48
2021/10/18 03:04:33;;;;;;;7.10;6.33;;;;;;;;;;5051926;28;20412;-46
2021/10/18 03:06:59;;;;;;;7.43;5.97;;;;;;;;;;5051790;28;20438;-45
2021/10/18 03:09:25;;;;;;;9.53;6.90;;;;;;;;;;5051746;28;20469;-46
2021/10/18 03:11:51;;;;;;;7.07;5.40;;;;;;;;;;5051778;28;20460;-46
2021/10/18 03:14:18;;;;;;;7.60;5.83;;;;;;;;;;5051950;28;20397;-46
2021/10/18 03:16:44;;;;;;;7.45;5.65;;;;;;;;;;5051708;28;20406;-46
2021/10/18 03:19:10;;;;;;;6.70;6.00;;;;;;;;;;5051596;28;20190;-46
2021/10/18 03:21:35;;;;;;;8.10;6.00;;;;;;;;;;5051542;28;20516;-46
2021/10/18 03:24:01;;;;;;;7.87;6.60;;;;;;;;;;5051533;28;20820;-46
2021/10/18 03:26:27;;;;;;;7.10;6.40;;;;;;;;;;5051886;28;20408;-46
2021/10/18 03:28:53;;;;;;;8.47;5.80;;;;;;;;;;5051577;28;20458;-46
2021/10/18 03:31:19;;;;;;;9.43;6.93;;;;;;;;;;5051541;28;20428;-46
2021/10/18 03:33:45;;;;;;;7.17;6.47;;;;;;;;;;5051349;28;20433;-46
2021/10/18 03:36:11;;;;;;;9.00;6.47;;;;;;;;;;5051568;28;20408;-46
2021/10/18 03:38:37;;;;;;;10.27;5.53;;;;;;;;;;5051473;28;20481;-46
2021/10/18 03:41:03;;;;;;;6.60;6.00;;;;;;;;;;5051474;28;20509;-45
2021/10/18 03:43:29;;;;;;;8.13;6.70;;;;;;;;;;5051270;28;20406;-46
2021/10/18 03:45:55;;;;;;;8.30;6.50;;;;;;;;;;5051476;28;20402;-46
2021/10/18 03:48:22;;;;;;;8.10;5.80;;;;;;;;;;5051306;28;20765;-46
2021/10/18 03:50:48;;;;;;;7.60;6.27;;;;;;;;;;5051382;28;20452;-46
2021/10/18 03:53:14;;;;;;;6.03;5.47;;;;;;;;;;5052053;28;20402;-47
2021/10/18 03:55:40;;;;;;;8.83;5.90;;;;;;;;;;5051609;28;20455;-47
2021/10/18 03:58:06;;;;;;;9.30;6.57;;;;;;;;;;5051324;28;20398;-47
2021/10/18 04:00:32;;;;;;;10.30;7.37;;;;;;;;;;5051324;28;20882;-47
2021/10/18 04:02:58;;;;;;;10.47;7.27;;;;;;;;;;5054747;28;20433;-46
2021/10/18 04:05:24;;;;;;;8.70;6.80;;;;;;;;;;5055153;28;20911;-47
2021/10/18 04:07:50;;;;;;;10.97;5.90;;;;;;;;;;5055430;28;20398;-47
2021/10/18 04:10:20;;;;;;;8.50;6.30;;;;;;;;;;5055006;28;21103;-47
2021/10/18 04:12:46;;;;;;;7.30;6.47;;;;;;;;;;5054772;28;20431;-47
2021/10/18 04:15:12;;;;;;;8.17;6.27;;;;;;;;;;5054966;28;20480;-47
2021/10/18 04:17:38;;;;;;;14.37;7.17;;;;;;;;;;5054796;28;20399;-47
2021/10/18 04:20:07;;;;;;;8.40;6.30;;;;;;;;;;5054861;28;20442;-47
2021/10/18 04:22:33;;;;;;;9.60;6.40;;;;;;;;;;5054588;28;20939;-47
2021/10/18 04:24:59;;;;;;;8.63;6.37;;;;;;;;;;5054861;28;20410;-47
2021/10/18 04:27:25;;;;;;;8.80;6.70;;;;;;;;;;5054698;28;20820;-47
2021/10/18 04:29:51;;;;;;;11.03;6.57;;;;;;;;;;5054630;28;20454;-47
2021/10/18 04:32:17;;;;;;;8.33;7.37;;;;;;;;;;5054292;28;20427;-46
2021/10/18 04:34:43;;;;;;;8.43;7.23;;;;;;;;;;5054658;28;20497;-46
2021/10/18 04:37:10;;;;;;;8.83;6.80;;;;;;;;;;5054544;28;20812;-46
2021/10/18 04:39:36;;;;;;;9.80;7.30;;;;;;;;;;5054548;28;20962;-47
2021/10/18 04:42:02;;;;;;;10.70;6.87;;;;;;;;;;5054184;28;20427;-47
2021/10/18 04:44:28;;;;;;;7.80;6.50;;;;;;;;;;5054410;28;20776;-47
2021/10/18 04:46:54;;;;;;;8.60;7.00;;;;;;;;;;5054265;28;20429;-47
2021/10/18 04:49:20;;;;;;;6.90;6.20;;;;;;;;;;5054442;28;20794;-47
2021/10/18 04:51:46;;;;;;;9.70;6.77;;;;;;;;;;5054143;28;20423;-46
2021/10/18 04:54:13;;;;;;;7.77;6.40;;;;;;;;;;5054327;28;20766;-46
2021/10/18 04:56:39;;;;;;;7.90;6.53;;;;;;;;;;5054155;28;20405;-47
2021/10/18 04:59:05;;;;;;;13.93;8.50;;;;;;;;;;5054150;28;20399;-47
2021/10/18 05:01:31;;;;;;;9.40;6.70;;;;;;;;;;5053956;28;20793;-47
2021/10/18 05:03:57;;;;;;;7.70;6.47;;;;;;;;;;5053888;28;20463;-46
2021/10/18 05:06:23;;;;;;;9.40;7.00;;;;;;;;;;5054007;28;20408;-47
2021/10/18 05:08:49;;;;;;;10.50;6.67;;;;;;;;;;5053959;28;20459;-47
2021/10/18 05:11:15;;;;;;;13.03;7.13;;;;;;;;;;5053920;28;20438;-48
2021/10/18 05:13:41;;;;;;;8.00;6.77;;;;;;;;;;5053295;28;20835;-47
2021/10/18 05:16:07;;;;;;;8.50;7.20;;;;;;;;;;5053804;28;20400;-47
2021/10/18 05:18:33;;;;;;;8.20;7.47;;;;;;;;;;5053660;28;20984;-47
2021/10/18 05:21:00;;;;;;;9.80;8.50;;;;;;;;;;5053711;28;20898;-47
2021/10/18 05:23:26;;;;;;;12.43;7.03;;;;;;;;;;5053592;28;20425;-47
2021/10/18 05:25:52;;;;;;;15.00;7.83;;;;;;;;;;5053770;28;20407;-46
2021/10/18 05:28:18;;;;;;;8.07;7.20;;;;;;;;;;5053589;28;20441;-46
2021/10/18 05:30:44;;;;;;;11.00;8.00;;;;;;;;;;5053362;28;20897;-47
2021/10/18 05:33:10;;;;;;;10.90;8.20;;;;;;;;;;5053339;28;20412;-47
2021/10/18 05:35:36;;;;;;;9.70;7.97;;;;;;;;;;5053572;28;20492;-47
2021/10/18 05:38:03;;;;;;;12.70;8.17;;;;;;;;;;5053442;28;20395;-47
2021/10/18 05:40:29;;;;;;;14.57;8.53;;;;;;;;;;5052177;28;20423;-47
2021/10/18 05:42:55;;;;;;;12.03;8.60;;;;;;;;;;5052972;28;20457;-47
2021/10/18 05:45:21;;;;;;;10.57;9.17;;;;;;;;;;5053270;28;20500;-46
2021/10/18 05:47:54;;;;;;;13.63;8.93;;;;;;;;;;5053321;28;20905;-47
2021/10/18 05:50:20;;;;;;;12.73;9.70;;;;;;;;;;5053149;28;20540;-47
2021/10/18 05:52:46;;;;;;;17.80;9.07;;;;;;;;;;5052866;28;20428;-47
2021/10/18 05:55:12;;;;;;;12.63;8.93;;;;;;;;;;5052797;28;20403;-46
2021/10/18 05:57:45;;;;;;;15.93;9.90;;;;;;;;;;5052689;28;20411;-47
2021/10/18 06:00:12;;;;;;;17.23;9.17;;;;;;;;;;5052430;28;20413;-47
2021/10/18 06:02:38;;;;;;;14.73;9.73;;;;;;;;;;5052370;28;20430;-47
2021/10/18 06:05:04;;;;;;;11.70;9.83;;;;;;;;;;5052274;28;20415;-47
2021/10/18 06:07:30;;;;;;;17.70;10.17;;;;;;;;;;5052375;28;20405;-47
2021/10/18 06:09:56;;;;;;;12.10;8.10;;;;;;;;;;5052430;28;20825;-46
2021/10/18 06:12:22;;;;;;;15.97;9.90;;;;;;;;;;5051722;28;20859;-47
2021/10/18 06:14:48;;;;;;;16.13;10.60;;;;;;;;;;5052239;28;20427;-49
2021/10/18 06:17:14;;;;;;;14.40;10.77;;;;;;;;;;5042337;28;20453;-47
2021/10/18 06:19:40;;;;;;;16.80;10.13;;;;;;;;;;5032214;28;20428;-47
2021/10/18 06:22:06;;;;;;;14.40;9.90;;;;;;;;;;5031759;28;20438;-47
2021/10/18 06:24:32;;;;;;;12.37;10.00;;;;;;;;;;5031739;28;20780;-47
2021/10/18 06:26:58;;;;;;;14.93;9.70;;;;;;;;;;5031843;28;20885;-47
2021/10/18 06:29:25;;;;;;;13.50;9.80;;;;;;;;;;5031327;28;20458;-48
2021/10/18 06:31:52;;;;;;;16.73;9.43;;;;;;;;;;5032409;28;20432;-47
2021/10/18 06:34:18;;;;;;;10.87;9.73;;;;;;;;;;5032294;28;20491;-46
2021/10/18 06:36:44;;;;;;;14.30;9.07;;;;;;;;;;5032731;28;20470;-47
2021/10/18 06:39:10;;;;;;;10.60;9.47;;;;;;;;;;5032257;28;20495;-47
2021/10/18 06:41:36;;;;;;;16.23;9.40;;;;;;;;;;5032161;28;20578;-46
2021/10/18 06:44:01;;;;;;;14.73;9.60;;;;;;;;;;5032123;28;20414;-47
2021/10/18 06:46:27;;;;;;;11.40;9.67;;;;;;;;;;5032249;28;20419;-47
2021/10/18 06:48:53;;;;;;;12.50;8.93;;;;;;;;;;5032206;28;20992;-47
2021/10/18 06:51:19;;;;;;;12.63;9.60;;;;;;;;;;5032163;28;20426;-47
2021/10/18 06:53:49;;;;;;;14.13;9.73;;;;;;;;;;5031983;28;20886;-47
2021/10/18 06:56:15;;;;;;;10.63;8.63;;;;;;;;;;5032305;28;20458;-47
2021/10/18 06:58:41;;;;;;;13.17;9.40;;;;;;;;;;5032059;28;20400;-47
2021/10/18 07:01:07;;;;;;;10.97;8.87;;;;;;;;;;5032027;28;20422;-47
2021/10/18 07:03:32;;;;;;;17.93;9.30;;;;;;;;;;5031843;28;20937;-47
2021/10/18 07:06:01;;;;;;;11.13;8.67;;;;;;;;;;5032021;28;20505;-47
2021/10/18 07:08:27;;;;;;;10.50;9.33;;;;;;;;;;5031791;28;20413;-47
2021/10/18 07:10:53;;;;;;;13.80;10.60;;;;;;;;;;5031872;28;20428;-47
2021/10/18 07:13:19;;;;;;;12.80;10.13;;;;;;;;;;5031737;28;20421;-47
2021/10/18 07:15:45;;;;;;;15.93;9.40;;;;;;;;;;5031928;28;20441;-47
2021/10/18 07:18:11;;;;;;;12.00;8.80;;;;;;;;;;5031697;28;20426;-47
2021/10/18 07:20:37;;;;;;;10.90;8.50;;;;;;;;;;5031862;28;20882;-47
2021/10/18 07:23:08;;;;;;;11.60;9.60;;;;;;;;;;5031390;28;20485;-47
2021/10/18 07:25:34;;;;;;;12.93;9.60;;;;;;;;;;5031792;28;20405;-47
2021/10/18 07:28:00;;;;;;;11.70;8.53;;;;;;;;;;5031667;28;20406;-46
2021/10/18 07:30:26;;;;;;;12.60;9.47;;;;;;;;;;5031757;28;20460;-47
2021/10/18 07:32:52;;;;;;;10.10;8.40;;;;;;;;;;5031405;28;20418;-47
2021/10/18 07:35:20;;;;;;;13.13;8.10;;;;;;;;;;5032886;28;20402;-45
2021/10/18 07:37:54;;;;;;;11.50;9.47;;;;;;;;;;5035662;28;20441;-45
2021/10/18 07:40:20;;;;;;;12.57;9.10;;;;;;;;;;5035790;28;20403;-46
2021/10/18 07:42:47;;;;;;;10.93;8.50;;;;;;;;;;5035490;28;20430;-46
2021/10/18 07:45:13;;;;;;;16.73;9.00;;;;;;;;;;5035715;28;20654;-46
2021/10/18 07:47:41;;;;;;;9.73;8.67;;;;;;;;;;5035617;28;20404;-46
2021/10/18 07:50:10;;;;;;;13.33;9.60;;;;;;;;;;5035464;28;20502;-45
2021/10/18 07:52:36;;;;;;;13.00;8.60;;;;;;;;;;5042716;28;20434;-47
2021/10/18 07:55:03;;;;;;;12.47;9.40;;;;;;;;;;5055272;28;20462;-46
2021/10/18 07:57:29;;;;;;;14.37;9.83;;;;;;;;;;5055271;28;20407;-46
2021/10/18 07:59:55;;;;;;;19.73;11.40;;;;;;;;;;5055419;28;20463;-46
2021/10/18 08:02:21;;;;;;;15.27;9.13;;;;;;;;;;5054997;28;20489;-46
2021/10/18 08:04:47;;;;;;;17.80;9.90;;;;;;;;;;5055094;28;20409;-46
2021/10/18 08:07:13;;;;;;;14.00;9.33;;;;;;;;;;5055270;28;20418;-46
2021/10/18 08:09:39;;;;;;;16.07;9.40;;;;;;;;;;5054999;28;20872;-47
2021/10/18 08:12:05;;;;;;;13.07;9.00;;;;;;;;;;5054770;28;20424;-47
2021/10/18 08:14:31;;;;;;;11.57;9.07;;;;;;;;;;5055168;28;20745;-46
2021/10/18 08:17:03;;;;;;;15.30;8.73;;;;;;;;;;5054883;28;20395;-45
2021/10/18 08:19:29;;;;;;;14.47;9.00;;;;;;;;;;5054796;28;20470;-45
2021/10/18 08:21:55;;;;;;;12.37;9.40;;;;;;;;;;5054535;28;20510;-46
2021/10/18 08:24:21;;;;;;;9.87;7.60;;;;;;;;;;5054744;28;20400;-46
2021/10/18 08:26:47;;;;;;;11.70;9.17;;;;;;;;;;5054716;28;20400;-46
2021/10/18 08:29:13;;;;;;;14.23;9.77;;;;;;;;;;5055042;28;20466;-46
2021/10/18 08:31:39;;;;;;;12.40;8.90;;;;;;;;;;5054545;28;20515;-46
2021/10/18 08:34:05;;;;;;;10.70;8.73;;;;;;;;;;5054415;28;20401;-46
2021/10/18 08:36:36;;;;;;;11.07;8.73;;;;;;;;;;5054530;28;20736;-46
2021/10/18 08:41:52;;;;;;;9.37;8.37;;;;;;;;;;5054312;28;20423;-48
2021/10/18 08:44:18;;;;;;;10.13;8.67;;;;;;;;;;5054340;28;20397;-45
2021/10/18 08:46:48;;;;;;;10.57;7.43;;;;;;;;;;5053671;28;20399;-46
2021/10/18 08:49:17;;;;;;;12.97;7.53;;;;;;;;;;5054229;28;20885;-46
2021/10/18 08:51:42;;;;;;;12.70;8.13;;;;;;;;;;5054165;28;20559;-46
2021/10/18 08:54:09;;;;;;;11.87;7.20;;;;;;;;;;5054177;28;20931;-46
2021/10/18 08:56:36;;;;;;;7.87;7.07;;;;;;;;;;5054156;28;20411;-46
2021/10/18 08:59:01;;;;;;;10.33;8.03;;;;;;;;;;5054030;28;20433;-46
2021/10/18 09:01:46;;;;;;;8.30;6.93;;;;;;;;;;5054108;28;20959;-46
2021/10/18 09:04:25;;;;;;;7.80;6.97;;;;;;;;;;5054079;28;20384;-47
2021/10/18 09:06:51;;;;;;;7.13;6.40;;;;;;;;;;5054043;28;20435;-45
2021/10/18 09:09:22;;;;;;;9.90;7.00;;;;;;;;;;5053838;28;20884;-46
2021/10/18 09:11:48;;;;;;;8.33;6.20;;;;;;;;;;5053715;28;20395;-46
2021/10/18 09:14:15;;;;;;;7.53;6.33;;;;;;;;;;5053930;28;20376;-46
2021/10/18 09:16:42;;;;;;;7.10;6.20;;;;;;;;;;5053832;28;20839;-46
2021/10/18 09:19:10;;;;;;;7.33;6.63;;;;;;;;;;5053654;28;20411;-46
2021/10/18 09:21:48;;;;;;;8.17;5.97;;;;;;;;;;5053629;28;20432;-46
2021/10/18 09:24:36;;;;;;;7.17;6.47;;;;;;;;;;5053691;28;20417;-46
2021/10/18 09:27:23;;;;;;;9.20;6.30;;;;;;;;;;5053664;28;20406;-45
2021/10/18 09:29:50;;;;;;;7.87;5.47;;;;;;;;;;5053438;28;20914;-46
2021/10/18 09:32:19;;;;;;;8.77;6.40;;;;;;;;;;5053093;28;20438;-47
2021/10/18 09:34:45;;;;;;;9.60;6.60;;;;;;;;;;5053552;28;20376;-46
2021/10/18 09:37:12;;;;;;;9.23;5.23;;;;;;;;;;5053407;28;21002;-46
2021/10/18 09:39:41;;;;;;;6.10;5.50;;;;;;;;;;5053411;28;20412;-46
2021/10/18 09:42:08;;;;;;;9.40;6.40;;;;;;;;;;5053135;28;20414;-46
2021/10/18 10:51:51;;;;;;;4.57;3.80;;;;;;;;;;5052278;28;20470;-49
2021/10/18 10:54:36;;;;;;;5.20;4.20;;;;;;;;;;5052125;28;20425;-49
2021/10/18 10:57:10;;;;;;;9.67;4.03;;;;;;;;;;5052014;28;20404;-49
2021/10/18 10:59:36;;;;;;;4.80;4.40;;;;;;;;;;5052074;28;20410;-48
2021/10/18 11:02:11;;;;;;;4.30;3.90;;;;;;;;;;5040280;28;20468;-49
2021/10/18 11:04:37;;;;;;;3.73;3.43;;;;;;;;;;5040810;28;20415;-49
2021/10/18 11:07:04;;;;;;;6.53;4.13;;;;;;;;;;5051712;28;20397;-48
2021/10/18 11:09:36;;;;;;;6.83;3.60;;;;;;;;;;5051491;28;20456;-49
2021/10/18 11:12:02;;;;;;;4.77;4.33;;;;;;;;;;5051410;28;20413;-48
2021/10/18 11:14:28;;;;;;;9.47;4.10;;;;;;;;;;5051624;28;20391;-48
2021/10/18 11:16:54;;;;;;;4.10;3.47;;;;;;;;;;5051676;28;20397;-48
2021/10/18 11:19:24;;;;;;;6.33;3.70;;;;;;;;;;5051742;28;20478;-48
2021/10/18 11:21:56;;;;;;;5.43;4.00;;;;;;;;;;5051402;28;20894;-48
2021/10/18 11:24:23;;;;;;;4.17;3.83;;;;;;;;;;5051609;28;20405;-48
2021/10/18 11:26:53;;;;;;;5.03;3.67;;;;;;;;;;5051348;28;20495;-48
2021/10/18 11:29:19;;;;;;;5.07;4.43;;;;;;;;;;5051064;28;20461;-48
2021/10/18 11:31:45;;;;;;;5.50;4.50;;;;;;;;;;5051361;28;20422;-47
2021/10/18 11:34:18;;;;;;;4.20;3.90;;;;;;;;;;5051506;28;20809;-48
2021/10/18 11:36:45;;;;;;;8.00;3.73;;;;;;;;;;5051479;28;20390;-48
2021/10/18 11:39:21;;;;;;;4.10;3.70;;;;;;;;;;5048196;28;20402;-48
2021/10/18 11:41:59;;;;;;;4.57;4.17;;;;;;;;;;5049918;28;20420;-48
2021/10/18 11:44:44;;;;;;;4.10;3.43;;;;;;;;;;5050954;28;20493;-49
2021/10/18 11:47:23;;;;;;;4.60;3.83;;;;;;;;;;5036595;28;20398;-48
2021/10/18 11:50:08;;;;;;;5.80;3.97;;;;;;;;;;5027453;28;20465;-48
2021/10/18 11:52:35;;;;;;;6.53;4.10;;;;;;;;;;5027822;28;20429;-49
2021/10/18 11:55:01;;;;;;;4.63;4.23;;;;;;;;;;5029052;28;20398;-48
2021/10/18 11:57:29;;;;;;;3.50;2.97;;;;;;;;;;5030068;28;20410;-49
2021/10/18 11:59:56;;;;;;;4.90;4.00;;;;;;;;;;5026648;28;20404;-47
2021/10/18 12:02:25;;;;;;;7.30;4.50;;;;;;;;;;5029306;28;20434;-48
2021/10/18 12:05:00;;;;;;;7.00;5.50;;;;;;;;;;5031375;28;20751;-48
2021/10/18 12:07:39;;;;;;;5.43;3.83;;;;;;;;;;5031280;28;20484;-48
2021/10/18 12:10:14;;;;;;;4.73;3.93;;;;;;;;;;5031295;28;20528;-48
2021/10/18 12:12:40;;;;;;;4.70;4.13;;;;;;;;;;5030865;28;20422;-48
2021/10/18 12:15:07;;;;;;;6.43;4.40;;;;;;;;;;5031337;28;20398;-48
2021/10/18 12:17:34;;;;;;;5.53;4.00;;;;;;;;;;5031443;28;20765;-49
2021/10/18 12:20:01;;;;;;;4.83;3.80;;;;;;;;;;5031292;28;20468;-48
2021/10/18 12:22:28;;;;;;;4.83;3.93;;;;;;;;;;5032198;28;20420;-49
2021/10/18 12:25:01;;;;;;;4.83;4.43;;;;;;;;;;5034878;28;20503;-48
2021/10/18 12:27:28;;;;;;;4.57;4.27;;;;;;;;;;5034763;28;20400;-49
2021/10/18 12:29:53;;;;;;;4.97;4.53;;;;;;;;;;5034799;28;20551;-49
2021/10/18 12:32:19;;;;;;;5.30;4.13;;;;;;;;;;5034497;28;20506;-48
2021/10/18 12:34:45;;;;;;;5.50;4.20;;;;;;;;;;5034708;28;20463;-48
2021/10/18 12:37:12;;;;;;;6.83;4.20;;;;;;;;;;5034672;28;20413;-48
2021/10/18 12:39:39;;;;;;;5.57;4.20;;;;;;;;;;5034637;28;20976;-49
2021/10/18 12:42:06;;;;;;;4.00;3.60;;;;;;;;;;5034311;28;20463;-48
2021/10/18 12:44:34;;;;;;;3.87;3.53;;;;;;;;;;5034494;28;20814;-49
2021/10/18 12:47:00;;;;;;;4.50;4.07;;;;;;;;;;5034591;28;20752;-48
2021/10/18 12:49:31;;;;;;;4.83;4.43;;;;;;;;;;5034328;28;20450;-48
2021/10/18 12:52:02;;;;;;;5.87;3.60;;;;;;;;;;5034162;28;20429;-48
2021/10/18 12:54:29;;;;;;;4.17;3.77;;;;;;;;;;5034293;28;20405;-48
2021/10/18 12:57:02;;;;;;;4.30;4.00;;;;;;;;;;5034267;28;20402;-49
2021/10/18 12:59:31;;;;;;;5.03;4.17;;;;;;;;;;5034284;28;20398;-48
2021/10/18 13:02:15;;;;;;;4.63;3.83;;;;;;;;;;5033916;28;20437;-48
2021/10/18 13:04:41;;;;;;;4.30;3.93;;;;;;;;;;5034043;28;20424;-48
2021/10/18 13:07:07;;;;;;;4.10;3.37;;;;;;;;;;5034032;28;20769;-49
2021/10/18 13:09:33;;;;;;;4.60;3.73;;;;;;;;;;5034041;28;20456;-50
2021/10/18 13:11:59;;;;;;;5.37;3.70;;;;;;;;;;5033798;28;20957;-48
2021/10/18 13:14:25;;;;;;;3.70;3.50;;;;;;;;;;5034001;28;20953;-47
2021/10/18 13:16:51;;;;;;;3.93;3.53;;;;;;;;;;5034229;28;20413;-48
2021/10/18 13:19:17;;;;;;;4.03;3.50;;;;;;;;;;5044906;28;20432;-48
2021/10/18 13:21:43;;;;;;;4.30;3.63;;;;;;;;;;5052384;28;20503;-48
2021/10/18 13:24:09;;;;;;;3.70;3.40;;;;;;;;;;5053571;28;20409;-48
2021/10/18 13:26:35;;;;;;;4.80;4.10;;;;;;;;;;5053623;28;20409;-48
2021/10/18 13:29:01;;;;;;;9.83;4.33;;;;;;;;;;5053456;28;20456;-48
2021/10/18 13:31:27;;;;;;;4.83;3.93;;;;;;;;;;5053463;28;20456;-47
2021/10/18 13:33:53;;;;;;;5.23;4.80;;;;;;;;;;5052957;28;20442;-47
2021/10/18 13:36:19;;;;;;;5.00;4.10;;;;;;;;;;5053416;28;20412;-47
2021/10/18 13:38:45;;;;;;;7.07;5.27;;;;;;;;;;5053543;28;20773;-48
2021/10/18 13:41:11;;;;;;;5.10;4.43;;;;;;;;;;5053342;28;20439;-48
2021/10/18 13:43:36;;;;;;;7.33;5.30;;;;;;;;;;5051738;28;20466;-47
2021/10/18 13:46:02;;;;;;;6.87;4.60;;;;;;;;;;5053235;28;20493;-48
2021/10/18 13:48:28;;;;;;;6.90;5.77;;;;;;;;;;5053059;28;20411;-48
2021/10/18 13:50:54;;;;;;;4.80;4.40;;;;;;;;;;5052967;28;20463;-48
2021/10/18 13:53:20;;;;;;;5.27;4.77;;;;;;;;;;5053041;28;20409;-48
2021/10/18 13:55:49;;;;;;;5.93;4.93;;;;;;;;;;5052954;28;20411;-48
2021/10/18 13:58:15;;;;;;;5.23;4.40;;;;;;;;;;5053089;28;20406;-48
2021/10/18 14:00:41;;;;;;;6.77;5.50;;;;;;;;;;5053046;28;20397;-48
2021/10/18 14:03:07;;;;;;;7.03;5.70;;;;;;;;;;5052744;28;20924;-47
2021/10/18 14:05:33;;;;;;;5.87;5.27;;;;;;;;;;5053016;28;20835;-48
2021/10/18 14:07:59;;;;;;;7.40;5.97;;;;;;;;;;5052914;28;20752;-47
2021/10/18 14:10:25;;;;;;;6.60;5.17;;;;;;;;;;5052889;28;20534;-48
2021/10/18 14:12:51;;;;;;;6.03;5.43;;;;;;;;;;5052537;28;20421;-48
2021/10/18 14:15:17;;;;;;;7.97;5.80;;;;;;;;;;5052787;28;20487;-47
2021/10/18 14:17:43;;;;;;;7.00;6.30;;;;;;;;;;5052575;28;20413;-48
2021/10/18 14:20:12;;;;;;;8.07;6.40;;;;;;;;;;5052723;28;20392;-48
2021/10/18 14:22:37;;;;;;;7.33;5.73;;;;;;;;;;5052347;28;20388;-47
2021/10/18 14:25:05;;;;;;;10.00;5.57;;;;;;;;;;5052667;28;20411;-48
2021/10/18 14:27:32;;;;;;;6.90;6.20;;;;;;;;;;5052516;28;20898;-48
2021/10/18 14:29:58;;;;;;;8.90;6.77;;;;;;;;;;5052498;28;20420;-47
2021/10/18 14:32:24;;;;;;;7.80;6.90;;;;;;;;;;5052069;28;20432;-47
2021/10/18 14:34:50;;;;;;;7.97;7.03;;;;;;;;;;5052701;28;20867;-48
2021/10/18 14:37:16;;;;;;;10.30;7.20;;;;;;;;;;5052363;28;20407;-48
2021/10/18 14:39:42;;;;;;;7.80;6.90;;;;;;;;;;5052320;28;20394;-48
2021/10/18 14:42:09;;;;;;;7.00;6.40;;;;;;;;;;5052047;28;20429;-48
2021/10/18 14:44:34;;;;;;;7.20;6.50;;;;;;;;;;5051744;28;20409;-48
2021/10/18 14:47:00;;;;;;;9.70;7.80;;;;;;;;;;5052013;28;20760;-48
2021/10/18 14:49:26;;;;;;;9.30;7.10;;;;;;;;;;5052140;28;20518;-48
2021/10/18 14:51:52;;;;;;;10.43;6.90;;;;;;;;;;5051931;28;20413;-48
2021/10/18 14:54:18;;;;;;;9.00;7.60;;;;;;;;;;5052126;28;20400;-48
2021/10/18 14:56:44;;;;;;;8.40;7.00;;;;;;;;;;5052015;28;20478;-48
2021/10/18 14:59:13;;;;;;;11.00;7.17;;;;;;;;;;5052016;28;20379;-48
2021/10/18 15:01:39;;;;;;;8.97;6.77;;;;;;;;;;5051548;28;20903;-49
2021/10/18 15:04:06;;;;;;;7.03;6.33;;;;;;;;;;5050382;28;20416;-48
2021/10/18 15:06:32;;;;;;;10.43;7.30;;;;;;;;;;5051784;28;20417;-48
2021/10/18 15:09:00;;;;;;;13.47;8.00;;;;;;;;;;5051770;28;20406;-48
2021/10/18 15:11:26;;;;;;;11.23;7.67;;;;;;;;;;5051789;28;20406;-46
2021/10/18 15:13:52;;;;;;;10.43;7.57;;;;;;;;;;5051486;28;20379;-47
2021/10/18 15:16:18;;;;;;;9.53;6.93;;;;;;;;;;5051720;28;20404;-47
2021/10/18 15:18:44;;;;;;;8.83;7.80;;;;;;;;;;5051752;28;20836;-48
2021/10/18 15:21:12;;;;;;;8.13;7.23;;;;;;;;;;5051653;28;20452;-47
2021/10/18 15:23:38;;;;;;;10.57;7.83;;;;;;;;;;5051092;28;20440;-47
2021/10/18 15:26:06;;;;;;;10.57;8.17;;;;;;;;;;5051710;28;20435;-47
2021/10/18 15:28:32;;;;;;;9.73;7.13;;;;;;;;;;5050705;28;20889;-48
2021/10/18 15:30:58;;;;;;;8.67;7.47;;;;;;;;;;5051447;28;20520;-48
2021/10/18 15:33:24;;;;;;;9.60;8.10;;;;;;;;;;5051461;28;20372;-48
2021/10/18 15:35:50;;;;;;;8.70;7.37;;;;;;;;;;5050251;28;20383;-48
2021/10/18 15:38:16;;;;;;;12.10;7.90;;;;;;;;;;5051611;28;20386;-48
2021/10/18 15:40:42;;;;;;;13.90;8.57;;;;;;;;;;5051434;28;20376;-48
2021/10/18 15:43:08;;;;;;;12.33;8.10;;;;;;;;;;5051271;28;20425;-48
2021/10/18 15:45:34;;;;;;;10.50;8.27;;;;;;;;;;5051493;28;20950;-48
2021/10/18 15:48:00;;;;;;;10.00;8.70;;;;;;;;;;5051249;28;20405;-48